Time;durP1;ratioP1;P1;durP2;ratioP2;P2;SDS_P1;SDS_P2;PMS_P1;PMS_P2;Temp;Humidity;BMP_temperature;BMP_pressure;BME280_temperature;BME280_humidity;BME280_pressure;Samples;Min_cycle;Max_cycle;Signal;HPM_P1;HPM_P2
2022/12/19 00:01:20;;;;;;;22.52;8.65;;;;;;;;;;6066005;23;20080;-81
2022/12/19 00:03:50;;;;;;;22.38;8.85;;;;;;;;;;6090731;23;20014;-80
2022/12/19 00:06:17;;;;;;;22.15;9.10;;;;;;;;;;6090817;23;20006;-80
2022/12/19 00:08:47;;;;;;;21.08;8.55;;;;;;;;;;6092056;23;20017;-80
2022/12/19 00:11:20;;;;;;;21.13;9.00;;;;;;;;;;6066322;23;20038;-80
2022/12/19 00:13:46;;;;;;;25.17;9.40;;;;;;;;;;6067547;23;20018;-81
2022/12/19 00:16:13;;;;;;;24.05;9.20;;;;;;;;;;6065986;23;20049;-81
2022/12/19 00:18:40;;;;;;;21.27;8.05;;;;;;;;;;6091727;23;20022;-81
2022/12/19 00:21:11;;;;;;;22.03;8.50;;;;;;;;;;6065920;23;20453;-81
2022/12/19 00:23:36;;;;;;;19.15;8.40;;;;;;;;;;6091700;23;20037;-81
2022/12/19 00:26:12;;;;;;;21.02;8.88;;;;;;;;;;6090603;23;20429;-82
2022/12/19 00:28:38;;;;;;;21.42;8.85;;;;;;;;;;6067675;23;20098;-81
2022/12/19 00:31:03;;;;;;;18.63;8.52;;;;;;;;;;6067050;23;20407;-81
2022/12/19 00:33:29;;;;;;;21.50;8.18;;;;;;;;;;6091964;23;20026;-81
2022/12/19 00:36:06;;;;;;;23.48;9.57;;;;;;;;;;6114861;23;20014;-81
2022/12/19 00:38:32;;;;;;;18.92;8.15;;;;;;;;;;6067277;23;20014;-81
2022/12/19 00:41:11;;;;;;;21.25;8.15;;;;;;;;;;6091785;23;20033;-81
2022/12/19 00:43:37;;;;;;;19.55;7.78;;;;;;;;;;6091579;23;20097;-81
2022/12/19 00:46:04;;;;;;;18.65;8.27;;;;;;;;;;6066853;23;20037;-82
2022/12/19 00:48:30;;;;;;;23.17;9.40;;;;;;;;;;6067665;23;20021;-81
2022/12/19 00:51:03;;;;;;;23.37;8.43;;;;;;;;;;6067128;23;20101;-81
2022/12/19 00:53:28;;;;;;;15.32;7.97;;;;;;;;;;6091300;23;20358;-81
2022/12/19 00:55:54;;;;;;;22.85;8.43;;;;;;;;;;6091149;23;20018;-81
2022/12/19 00:58:37;;;;;;;23.85;9.75;;;;;;;;;;6091919;23;20382;-81
2022/12/19 01:01:24;;;;;;;17.00;7.75;;;;;;;;;;6090411;23;20014;-81
2022/12/19 01:03:49;;;;;;;18.48;7.68;;;;;;;;;;6067036;23;20452;-81
2022/12/19 01:06:15;;;;;;;19.52;7.88;;;;;;;;;;6066329;23;20044;-82
2022/12/19 01:08:41;;;;;;;19.33;8.13;;;;;;;;;;6066758;23;20401;-82
2022/12/19 01:11:07;;;;;;;19.38;7.93;;;;;;;;;;6066537;23;20014;-82
2022/12/19 01:27:53;;;;;;;17.05;7.13;;;;;;;;;;6118460;23;20017;-82
2022/12/19 01:30:18;;;;;;;21.48;8.55;;;;;;;;;;6004644;23;20106;-82
2022/12/19 01:32:43;;;;;;;16.88;7.38;;;;;;;;;;6074860;23;20046;-81
2022/12/19 01:35:09;;;;;;;16.10;7.18;;;;;;;;;;6092495;23;20017;-82
2022/12/19 01:37:34;;;;;;;15.65;7.53;;;;;;;;;;6067549;23;20017;-82
2022/12/19 01:39:59;;;;;;;18.58;7.68;;;;;;;;;;6068864;23;20018;-82
2022/12/19 01:42:25;;;;;;;20.02;8.10;;;;;;;;;;6092336;23;20071;-82
2022/12/19 01:45:21;;;;;;;16.10;7.65;;;;;;;;;;6068924;23;20086;-82
2022/12/19 01:48:11;;;;;;;18.35;7.55;;;;;;;;;;6041615;23;20092;-82
2022/12/19 01:50:54;;;;;;;16.33;7.20;;;;;;;;;;6117532;23;20054;-82
2022/12/19 01:53:22;;;;;;;16.33;7.57;;;;;;;;;;6092723;23;20033;-82
2022/12/19 01:55:49;;;;;;;20.42;8.60;;;;;;;;;;6092639;23;20032;-82
2022/12/19 01:58:14;;;;;;;18.50;7.67;;;;;;;;;;6069229;23;20089;-82
2022/12/19 02:00:42;;;;;;;17.52;6.72;;;;;;;;;;6091990;23;20321;-82
2022/12/19 02:03:13;;;;;;;18.38;7.25;;;;;;;;;;6068397;23;20486;-82
2022/12/19 02:05:39;;;;;;;19.83;6.93;;;;;;;;;;6067317;23;20046;-82
2022/12/19 02:08:04;;;;;;;19.25;7.10;;;;;;;;;;6068573;23;20350;-82
2022/12/19 02:10:30;;;;;;;22.17;8.00;;;;;;;;;;6067935;23;20025;-82
2022/12/19 02:12:58;;;;;;;19.08;7.70;;;;;;;;;;6069595;23;20650;-82
2022/12/19 02:15:26;;;;;;;19.55;7.70;;;;;;;;;;6067646;23;20471;-82
2022/12/19 02:17:55;;;;;;;;;;;;;;;;;;6068480;23;20395;-82
2022/12/19 02:20:29;;;;;;;16.33;7.10;;;;;;;;;;6067956;23;19917;-82
2022/12/19 02:23:09;;;;;;;13.48;6.85;;;;;;;;;;6118313;23;20096;-82
2022/12/19 02:25:56;;;;;;;19.02;7.70;;;;;;;;;;6116087;23;20018;-83
2022/12/19 02:28:42;;;;;;;18.15;7.95;;;;;;;;;;6092575;23;20667;-82
2022/12/19 02:31:16;;;;;;;18.33;7.30;;;;;;;;;;6116513;23;20021;-81
2022/12/19 02:33:45;;;;;;;18.27;7.45;;;;;;;;;;6092336;23;20028;-81
2022/12/19 02:36:18;;;;;;;16.58;7.45;;;;;;;;;;6117266;23;20029;-81
2022/12/19 02:38:52;;;;;;;20.40;8.02;;;;;;;;;;6067842;23;20018;-82
2022/12/19 02:41:22;;;;;;;16.77;7.05;;;;;;;;;;6117777;23;20014;-81
2022/12/19 02:43:51;;;;;;;23.40;8.48;;;;;;;;;;6067862;23;20042;-81
2022/12/19 02:46:17;;;;;;;17.08;7.53;;;;;;;;;;6091887;23;20466;-81
2022/12/19 02:48:42;;;;;;;19.58;8.63;;;;;;;;;;6068174;23;20030;-82
2022/12/19 02:51:08;;;;;;;18.25;7.50;;;;;;;;;;6091523;23;20018;-82
2022/12/19 02:53:34;;;;;;;16.95;6.88;;;;;;;;;;6068381;23;20350;-81
2022/12/19 02:56:40;;;;;;;17.92;7.80;;;;;;;;;;6067418;23;20038;-82
2022/12/19 02:59:37;;;;;;;21.77;8.60;;;;;;;;;;6055571;23;20021;-81
2022/12/19 03:02:24;;;;;;;20.13;8.48;;;;;;;;;;6091061;23;20018;-81
2022/12/19 03:04:58;;;;;;;21.95;8.35;;;;;;;;;;6091843;23;20470;-82
2022/12/19 03:07:35;;;;;;;21.85;8.73;;;;;;;;;;6067679;23;20354;-81
2022/12/19 03:10:37;;;;;;;22.52;8.95;;;;;;;;;;6115980;23;20346;-81
2022/12/19 03:13:15;;;;;;;22.65;9.43;;;;;;;;;;6091421;23;20020;-81
2022/12/19 03:15:44;;;;;;;21.10;8.73;;;;;;;;;;6066582;23;20025;-81
2022/12/19 03:18:10;;;;;;;24.88;8.70;;;;;;;;;;6091956;23;20405;-82
2022/12/19 03:20:53;;;;;;;19.92;7.82;;;;;;;;;;6091351;23;20350;-81
2022/12/19 03:23:19;;;;;;;19.23;8.38;;;;;;;;;;6087670;23;20121;-80
2022/12/19 03:25:48;;;;;;;19.35;8.35;;;;;;;;;;6090330;23;20458;-82
2022/12/19 03:28:36;;;;;;;19.73;8.13;;;;;;;;;;6066067;23;20316;-80
2022/12/19 03:31:03;;;;;;;20.42;9.10;;;;;;;;;;6115811;23;20084;-82
2022/12/19 03:33:30;;;;;;;22.48;9.35;;;;;;;;;;6092858;23;20508;-82
2022/12/19 03:35:57;;;;;;;20.65;8.57;;;;;;;;;;6066920;23;20100;-81
2022/12/19 03:38:22;;;;;;;19.27;8.52;;;;;;;;;;6067932;23;20017;-81
2022/12/19 03:40:48;;;;;;;24.98;9.32;;;;;;;;;;6067202;23;20526;-82
2022/12/19 03:43:18;;;;;;;21.35;8.85;;;;;;;;;;6067245;23;20022;-81
2022/12/19 03:45:46;;;;;;;18.10;7.72;;;;;;;;;;6066851;23;20470;-81
2022/12/19 03:48:36;;;;;;;18.95;8.93;;;;;;;;;;6091876;23;20017;-81
2022/12/19 03:51:20;;;;;;;17.80;8.35;;;;;;;;;;6089326;23;20502;-82
2022/12/19 03:54:05;;;;;;;17.52;8.48;;;;;;;;;;6091798;23;20017;-82
2022/12/19 03:56:45;;;;;;;21.90;8.77;;;;;;;;;;6066739;23;20018;-81
2022/12/19 03:59:20;;;;;;;22.58;9.48;;;;;;;;;;6091271;23;20098;-81
2022/12/19 04:01:47;;;;;;;17.45;8.43;;;;;;;;;;6090911;23;20026;-83
2022/12/19 04:04:12;;;;;;;28.42;10.45;;;;;;;;;;6090497;23;20029;-83
2022/12/19 04:06:39;;;;;;;20.85;7.88;;;;;;;;;;6065926;23;20010;-81
2022/12/19 04:09:05;;;;;;;20.63;9.07;;;;;;;;;;6091879;23;20014;-81
2022/12/19 04:11:37;;;;;;;19.48;8.05;;;;;;;;;;6066702;23;20018;-81
2022/12/19 04:14:09;;;;;;;19.52;9.80;;;;;;;;;;6117848;23;20021;-82
2022/12/19 04:16:38;;;;;;;18.38;8.85;;;;;;;;;;6066593;23;20096;-82
2022/12/19 04:19:15;;;;;;;22.98;9.77;;;;;;;;;;6092014;23;20038;-83
2022/12/19 04:21:46;;;;;;;21.98;8.32;;;;;;;;;;6067048;23;20089;-82
2022/12/19 04:24:16;;;;;;;21.02;9.20;;;;;;;;;;6067266;23;20018;-82
2022/12/19 04:26:44;;;;;;;21.98;9.23;;;;;;;;;;6066705;23;20105;-82
2022/12/19 04:29:11;;;;;;;22.80;8.65;;;;;;;;;;6067869;23;20014;-81
2022/12/19 04:31:37;;;;;;;22.05;8.75;;;;;;;;;;6090954;23;20009;-81
2022/12/19 04:34:02;;;;;;;22.65;10.18;;;;;;;;;;6067789;23;20026;-81
2022/12/19 04:36:28;;;;;;;21.83;9.30;;;;;;;;;;6090970;23;20014;-81
2022/12/19 04:38:54;;;;;;;26.08;8.93;;;;;;;;;;6067690;23;20386;-82
2022/12/19 04:41:19;;;;;;;25.85;10.00;;;;;;;;;;6090214;23;20010;-82
2022/12/19 04:43:44;;;;;;;22.52;9.27;;;;;;;;;;6067574;23;20029;-82
2022/12/19 04:46:10;;;;;;;18.05;8.10;;;;;;;;;;6066816;23;20021;-82
2022/12/19 04:48:36;;;;;;;21.02;8.90;;;;;;;;;;6067619;23;20089;-83
2022/12/19 04:51:04;;;;;;;24.52;9.77;;;;;;;;;;6090685;23;20085;-83
2022/12/19 04:53:30;;;;;;;19.83;8.48;;;;;;;;;;6067909;23;20081;-81
2022/12/19 04:56:03;;;;;;;22.85;8.98;;;;;;;;;;6114639;23;20010;-83
2022/12/19 04:58:29;;;;;;;21.73;9.02;;;;;;;;;;6092528;23;20426;-83
2022/12/19 05:01:02;;;;;;;23.67;8.30;;;;;;;;;;6068634;23;20072;-81
2022/12/19 05:03:27;;;;;;;24.73;10.15;;;;;;;;;;6093429;23;20016;-81
2022/12/19 05:06:02;;;;;;;26.27;9.02;;;;;;;;;;6092345;23;20109;-81
2022/12/19 05:08:27;;;;;;;22.00;8.88;;;;;;;;;;6069901;23;20014;-82
2022/12/19 05:10:52;;;;;;;24.13;9.52;;;;;;;;;;6068731;23;20450;-81
2022/12/19 05:13:18;;;;;;;22.25;10.07;;;;;;;;;;6093405;23;20097;-82
2022/12/19 05:15:44;;;;;;;22.63;9.32;;;;;;;;;;6068160;23;20449;-82
2022/12/19 05:18:09;;;;;;;22.60;8.55;;;;;;;;;;6093727;23;20433;-82
2022/12/19 05:20:35;;;;;;;23.00;8.60;;;;;;;;;;6068186;23;20022;-82
2022/12/19 05:23:01;;;;;;;23.42;10.32;;;;;;;;;;6093135;23;20521;-82
2022/12/19 05:25:26;;;;;;;23.75;9.27;;;;;;;;;;6092935;23;20201;-82
2022/12/19 05:27:52;;;;;;;18.33;8.82;;;;;;;;;;6069361;23;20018;-82
2022/12/19 05:30:17;;;;;;;22.63;8.60;;;;;;;;;;6068949;23;20021;-82
2022/12/19 05:32:42;;;;;;;25.55;8.90;;;;;;;;;;6069342;23;20198;-82
2022/12/19 05:35:08;;;;;;;22.98;9.43;;;;;;;;;;6068584;23;20123;-82
2022/12/19 05:37:33;;;;;;;21.98;10.00;;;;;;;;;;6068459;23;20415;-82
2022/12/19 05:39:59;;;;;;;21.95;9.73;;;;;;;;;;6070497;23;20010;-81
2022/12/19 05:42:25;;;;;;;27.85;9.65;;;;;;;;;;6068050;23;20025;-83
2022/12/19 05:44:50;;;;;;;20.48;8.98;;;;;;;;;;6069490;23;20021;-83
2022/12/19 05:47:16;;;;;;;20.23;9.30;;;;;;;;;;6068449;23;20093;-83
2022/12/19 05:49:41;;;;;;;22.50;8.65;;;;;;;;;;6092038;23;20040;-83
2022/12/19 05:52:09;;;;;;;19.58;8.55;;;;;;;;;;6068765;23;20042;-83
2022/12/19 05:54:34;;;;;;;23.10;9.10;;;;;;;;;;6069047;23;20112;-83
2022/12/19 05:57:00;;;;;;;21.70;9.45;;;;;;;;;;6069053;23;20517;-83
2022/12/19 05:59:25;;;;;;;23.40;9.25;;;;;;;;;;6092785;23;20034;-82
2022/12/19 06:01:52;;;;;;;24.50;9.02;;;;;;;;;;6092270;23;20442;-82
2022/12/19 06:04:18;;;;;;;21.38;9.15;;;;;;;;;;6068629;23;20025;-82
2022/12/19 06:06:43;;;;;;;19.17;8.65;;;;;;;;;;6067678;23;20454;-82
2022/12/19 06:09:08;;;;;;;21.30;9.25;;;;;;;;;;6068817;23;20049;-82
2022/12/19 06:11:34;;;;;;;22.45;10.02;;;;;;;;;;6067632;23;20014;-83
2022/12/19 06:13:59;;;;;;;21.95;8.75;;;;;;;;;;6069298;23;20018;-83
2022/12/19 06:16:25;;;;;;;23.45;9.25;;;;;;;;;;6068072;23;20513;-82
2022/12/19 06:18:50;;;;;;;24.13;9.05;;;;;;;;;;6092523;23;20418;-82
2022/12/19 06:21:18;;;;;;;23.98;8.90;;;;;;;;;;6091462;23;20338;-83
2022/12/19 06:23:44;;;;;;;21.25;8.05;;;;;;;;;;6092574;23;20013;-82
2022/12/19 06:26:12;;;;;;;20.95;8.82;;;;;;;;;;6091907;23;20668;-82
2022/12/19 06:28:40;;;;;;;22.65;9.05;;;;;;;;;;6091689;23;20462;-82
2022/12/19 06:31:06;;;;;;;20.23;8.65;;;;;;;;;;6091883;23;20045;-82
2022/12/19 06:33:33;;;;;;;18.10;8.75;;;;;;;;;;6068297;23;20018;-82
2022/12/19 06:35:59;;;;;;;24.38;9.55;;;;;;;;;;6089609;23;20514;-82
2022/12/19 06:38:26;;;;;;;20.17;9.45;;;;;;;;;;6092623;23;20048;-82
2022/12/19 06:43:36;;;;;;;19.65;8.55;;;;;;;;;;6096115;23;20016;-82
2022/12/19 06:46:01;;;;;;;20.85;8.98;;;;;;;;;;6091808;23;20085;-82
2022/12/19 06:48:27;;;;;;;23.10;9.65;;;;;;;;;;6069090;23;20502;-82
2022/12/19 06:50:52;;;;;;;24.45;9.40;;;;;;;;;;6067619;23;20014;-82
2022/12/19 06:53:18;;;;;;;19.70;9.18;;;;;;;;;;6092120;23;20076;-82
2022/12/19 06:55:43;;;;;;;18.65;8.60;;;;;;;;;;6067276;23;20117;-82
2022/12/19 06:58:08;;;;;;;21.58;9.38;;;;;;;;;;6067227;23;20093;-82
2022/12/19 07:00:35;;;;;;;19.48;9.32;;;;;;;;;;6091602;23;20094;-81
2022/12/19 07:03:00;;;;;;;24.08;9.68;;;;;;;;;;6092893;23;20014;-82
2022/12/19 07:05:26;;;;;;;21.20;8.50;;;;;;;;;;6091342;23;20030;-81
2022/12/19 07:07:51;;;;;;;21.50;9.82;;;;;;;;;;6054234;23;20006;-82
2022/12/19 07:10:20;;;;;;;22.40;8.82;;;;;;;;;;6091326;23;20506;-82
2022/12/19 07:12:47;;;;;;;20.38;8.75;;;;;;;;;;6092397;23;20733;-82
2022/12/19 07:15:13;;;;;;;17.65;7.82;;;;;;;;;;6067504;23;20085;-82
2022/12/19 07:17:39;;;;;;;21.90;9.65;;;;;;;;;;6068049;23;20045;-82
2022/12/19 07:20:04;;;;;;;19.27;8.35;;;;;;;;;;6067465;23;20454;-82
2022/12/19 07:22:32;;;;;;;17.80;7.88;;;;;;;;;;6067679;23;20018;-82
2022/12/19 07:25:01;;;;;;;22.05;8.20;;;;;;;;;;6068099;23;20793;-82
2022/12/19 07:27:27;;;;;;;19.55;8.98;;;;;;;;;;6089494;23;20132;-81
2022/12/19 07:29:53;;;;;;;20.27;8.48;;;;;;;;;;6068028;23;20006;-81
2022/12/19 07:32:18;;;;;;;20.27;8.60;;;;;;;;;;6091391;23;20017;-82
2022/12/19 07:34:44;;;;;;;19.92;8.63;;;;;;;;;;6067827;23;20026;-82
2022/12/19 07:37:09;;;;;;;21.33;8.95;;;;;;;;;;6066668;23;20017;-82
2022/12/19 07:39:35;;;;;;;17.83;8.52;;;;;;;;;;6067304;23;20013;-82
2022/12/19 07:42:00;;;;;;;21.27;8.77;;;;;;;;;;6067600;23;20730;-82
2022/12/19 07:44:25;;;;;;;20.52;8.20;;;;;;;;;;6068759;23;20014;-81
2022/12/19 07:46:51;;;;;;;21.45;9.68;;;;;;;;;;6090163;23;20047;-82
2022/12/19 07:49:16;;;;;;;20.58;8.40;;;;;;;;;;6067002;23;20017;-82
2022/12/19 07:51:41;;;;;;;21.17;8.57;;;;;;;;;;6089346;23;20458;-82
2022/12/19 07:54:07;;;;;;;18.95;8.55;;;;;;;;;;6067322;23;20025;-84
2022/12/19 07:56:32;;;;;;;18.83;8.57;;;;;;;;;;6067113;23;20014;-82
2022/12/19 07:58:57;;;;;;;21.60;9.25;;;;;;;;;;6068578;23;20022;-81
2022/12/19 08:01:23;;;;;;;18.90;8.13;;;;;;;;;;6091171;23;20014;-81
2022/12/19 08:03:48;;;;;;;22.75;9.98;;;;;;;;;;6091558;23;20018;-81
2022/12/19 08:06:14;;;;;;;20.85;9.50;;;;;;;;;;6066475;23;20085;-81
2022/12/19 08:08:39;;;;;;;18.27;8.18;;;;;;;;;;6092014;23;20014;-82
2022/12/19 08:11:06;;;;;;;18.65;8.82;;;;;;;;;;6066596;23;20535;-81
2022/12/19 08:13:31;;;;;;;19.48;7.80;;;;;;;;;;6091856;23;20468;-83
2022/12/19 08:15:59;;;;;;;22.88;9.13;;;;;;;;;;6067633;23;20026;-82
2022/12/19 08:18:25;;;;;;;20.38;7.75;;;;;;;;;;6067420;23;20014;-82
2022/12/19 08:20:50;;;;;;;17.77;7.53;;;;;;;;;;6067290;23;20112;-83
2022/12/19 08:23:15;;;;;;;18.42;7.43;;;;;;;;;;6115549;23;20020;-82
2022/12/19 08:25:41;;;;;;;20.50;8.63;;;;;;;;;;6066881;23;20740;-82
2022/12/19 08:28:06;;;;;;;20.67;8.52;;;;;;;;;;6092061;23;20022;-84
2022/12/19 08:30:32;;;;;;;20.55;9.15;;;;;;;;;;6054243;23;20370;-82
2022/12/19 08:32:57;;;;;;;18.83;8.73;;;;;;;;;;6069379;23;20450;-82
2022/12/19 08:35:23;;;;;;;18.13;8.13;;;;;;;;;;6069521;23;20030;-82
2022/12/19 08:37:48;;;;;;;18.17;7.68;;;;;;;;;;6096225;23;20018;-82
2022/12/19 08:40:16;;;;;;;24.40;9.38;;;;;;;;;;6094031;23;20013;-81
2022/12/19 08:42:41;;;;;;;19.98;9.40;;;;;;;;;;6070812;23;20497;-82
2022/12/19 08:45:07;;;;;;;20.33;7.53;;;;;;;;;;6095537;23;20014;-83
2022/12/19 08:47:33;;;;;;;18.95;8.43;;;;;;;;;;6056487;23;20143;-81
2022/12/19 08:50:01;;;;;;;20.67;7.88;;;;;;;;;;6098598;23;20013;-83
2022/12/19 08:52:26;;;;;;;16.85;8.18;;;;;;;;;;6072799;23;20017;-81
2022/12/19 08:54:52;;;;;;;17.27;7.28;;;;;;;;;;6074836;23;20018;-83
2022/12/19 08:57:17;;;;;;;18.58;8.65;;;;;;;;;;6072992;23;20025;-82
2022/12/19 08:59:50;;;;;;;19.08;7.82;;;;;;;;;;6074783;23;20024;-83
2022/12/19 09:02:16;;;;;;;19.48;8.30;;;;;;;;;;6100107;23;20014;-83
2022/12/19 09:04:41;;;;;;;18.13;8.00;;;;;;;;;;6072967;23;20054;-82
2022/12/19 09:07:07;;;;;;;19.98;8.73;;;;;;;;;;6098135;23;20014;-83
2022/12/19 09:09:32;;;;;;;17.60;7.60;;;;;;;;;;6121913;23;20018;-81
2022/12/19 09:11:58;;;;;;;20.48;8.27;;;;;;;;;;6073204;23;20017;-83
2022/12/19 09:14:23;;;;;;;20.60;7.75;;;;;;;;;;6095857;23;20014;-82
2022/12/19 09:16:49;;;;;;;18.98;7.80;;;;;;;;;;6119478;23;20102;-83
2022/12/19 09:19:17;;;;;;;23.75;8.18;;;;;;;;;;6071269;23;20461;-83
2022/12/19 09:21:43;;;;;;;21.25;8.43;;;;;;;;;;6095055;23;20017;-83
2022/12/19 09:24:09;;;;;;;16.40;7.68;;;;;;;;;;6096925;23;20013;-83
2022/12/19 09:26:36;;;;;;;20.73;8.82;;;;;;;;;;6070671;23;20021;-82
2022/12/19 09:29:03;;;;;;;18.35;7.78;;;;;;;;;;6072237;23;20017;-83
2022/12/19 09:31:28;;;;;;;17.58;7.85;;;;;;;;;;6072089;23;20021;-83
2022/12/19 09:33:54;;;;;;;18.73;8.00;;;;;;;;;;6098655;23;20013;-83
2022/12/19 09:36:22;;;;;;;19.85;8.68;;;;;;;;;;6072789;23;20025;-83
2022/12/19 09:38:48;;;;;;;18.80;8.02;;;;;;;;;;6071717;23;20025;-82
2022/12/19 09:41:51;;;;;;;17.00;7.55;;;;;;;;;;6095324;23;20010;-83
2022/12/19 09:44:28;;;;;;;18.00;7.18;;;;;;;;;;6097623;23;20022;-82
2022/12/19 09:47:00;;;;;;;18.30;7.45;;;;;;;;;;6097216;23;20024;-84
2022/12/19 09:49:39;;;;;;;20.05;7.78;;;;;;;;;;6096894;23;20024;-82
2022/12/19 09:52:29;;;;;;;18.48;7.70;;;;;;;;;;6071876;23;20009;-83
2022/12/19 09:55:10;;;;;;;17.67;7.32;;;;;;;;;;6121610;23;20026;-83
2022/12/19 09:58:10;;;;;;;16.50;7.80;;;;;;;;;;6119507;23;20048;-81
2022/12/19 10:00:43;;;;;;;16.85;7.43;;;;;;;;;;6083470;23;20029;-81
2022/12/19 10:03:35;;;;;;;19.77;8.43;;;;;;;;;;6072012;23;20026;-83
2022/12/19 10:06:01;;;;;;;17.42;7.05;;;;;;;;;;6071043;23;20454;-83
2022/12/19 10:08:34;;;;;;;18.45;7.93;;;;;;;;;;6070108;23;20025;-81
2022/12/19 10:11:09;;;;;;;18.70;7.90;;;;;;;;;;6090969;23;20150;-81
2022/12/19 10:13:52;;;;;;;18.75;8.23;;;;;;;;;;6115555;23;20089;-81
2022/12/19 10:16:46;;;;;;;16.58;7.60;;;;;;;;;;6116780;23;20030;-81
2022/12/19 10:19:40;;;;;;;16.67;7.55;;;;;;;;;;6067304;23;20477;-80
2022/12/19 10:22:20;;;;;;;18.40;7.68;;;;;;;;;;6090609;23;20017;-80
2022/12/19 10:24:48;;;;;;;20.02;7.70;;;;;;;;;;6067336;23;20025;-81
2022/12/19 10:27:19;;;;;;;19.48;8.55;;;;;;;;;;6090261;23;20080;-81
2022/12/19 10:29:48;;;;;;;14.88;6.97;;;;;;;;;;6117546;23;20517;-81
2022/12/19 10:32:47;;;;;;;18.75;7.43;;;;;;;;;;6116730;23;20077;-81
2022/12/19 10:35:15;;;;;;;20.33;8.13;;;;;;;;;;6089738;23;20018;-81
2022/12/19 10:37:49;;;;;;;17.95;7.78;;;;;;;;;;6066801;23;20466;-82
2022/12/19 10:40:33;;;;;;;15.55;7.55;;;;;;;;;;6065592;23;20068;-80
2022/12/19 10:43:06;;;;;;;15.40;7.43;;;;;;;;;;6067689;23;20025;-81
2022/12/19 10:45:37;;;;;;;17.88;8.10;;;;;;;;;;6090505;23;20014;-81
2022/12/19 10:48:03;;;;;;;20.42;7.65;;;;;;;;;;6068055;23;20026;-83
2022/12/19 10:50:29;;;;;;;17.25;7.38;;;;;;;;;;6068093;23;20040;-82
2022/12/19 10:53:03;;;;;;;16.75;7.38;;;;;;;;;;6068005;23;20014;-82
2022/12/19 10:55:53;;;;;;;18.23;8.07;;;;;;;;;;6115306;23;20101;-81
2022/12/19 10:58:36;;;;;;;17.08;7.63;;;;;;;;;;6068511;23;20016;-81
2022/12/19 11:01:09;;;;;;;18.42;7.35;;;;;;;;;;6114773;23;20446;-81
2022/12/19 11:03:35;;;;;;;17.77;7.30;;;;;;;;;;6068116;23;20445;-81
2022/12/19 11:06:02;;;;;;;16.23;7.55;;;;;;;;;;6066635;23;20097;-82
2022/12/19 11:08:35;;;;;;;15.75;7.05;;;;;;;;;;6090540;23;20029;-82
2022/12/19 11:11:03;;;;;;;18.23;8.02;;;;;;;;;;6089531;23;20037;-83
2022/12/19 11:13:28;;;;;;;16.38;7.15;;;;;;;;;;6090276;23;20021;-82
2022/12/19 11:15:56;;;;;;;17.88;7.05;;;;;;;;;;6090679;23;20022;-82
2022/12/19 11:18:22;;;;;;;16.92;7.40;;;;;;;;;;6092103;23;20076;-83
2022/12/19 11:20:57;;;;;;;18.92;8.50;;;;;;;;;;6090790;23;20022;-83
2022/12/19 11:23:24;;;;;;;16.63;8.10;;;;;;;;;;6049534;23;20731;-82
2022/12/19 11:25:58;;;;;;;16.70;7.53;;;;;;;;;;6095974;23;20018;-82
2022/12/19 11:28:25;;;;;;;16.67;7.47;;;;;;;;;;6091704;23;20033;-82
2022/12/19 11:30:59;;;;;;;17.27;7.53;;;;;;;;;;6090469;23;20056;-82
2022/12/19 11:33:28;;;;;;;17.10;7.63;;;;;;;;;;6091672;23;20013;-81
2022/12/19 11:35:57;;;;;;;17.58;7.65;;;;;;;;;;6066626;23;20161;-81
2022/12/19 11:38:34;;;;;;;19.45;7.95;;;;;;;;;;6067392;23;20459;-84
2022/12/19 11:41:07;;;;;;;20.27;7.68;;;;;;;;;;6091447;23;20017;-83
2022/12/19 11:43:54;;;;;;;17.80;7.65;;;;;;;;;;6091348;23;20149;-84
2022/12/19 11:46:34;;;;;;;21.50;7.90;;;;;;;;;;6089823;23;20013;-84
2022/12/19 11:49:01;;;;;;;17.50;7.68;;;;;;;;;;6066709;23;20018;-83
2022/12/19 11:52:05;;;;;;;21.40;8.10;;;;;;;;;;6066578;23;20861;-83
2022/12/19 11:54:47;;;;;;;17.83;7.60;;;;;;;;;;6070837;23;20028;-84
2022/12/19 11:57:16;;;;;;;16.45;7.05;;;;;;;;;;6090138;23;20153;-84
2022/12/19 11:59:41;;;;;;;20.25;7.63;;;;;;;;;;6067730;23;20168;-84
2022/12/19 12:02:31;;;;;;;16.80;7.55;;;;;;;;;;6066117;23;20050;-84
2022/12/19 12:05:27;;;;;;;17.05;7.80;;;;;;;;;;6091318;23;20446;-82
2022/12/19 12:08:01;;;;;;;18.70;7.93;;;;;;;;;;6090533;23;20017;-83
2022/12/19 12:10:28;;;;;;;17.65;7.82;;;;;;;;;;6066247;23;20018;-82
2022/12/19 12:13:05;;;;;;;19.60;8.40;;;;;;;;;;6090737;23;20013;-84
2022/12/19 12:16:07;;;;;;;17.10;8.20;;;;;;;;;;6065401;23;20013;-84
2022/12/19 12:18:51;;;;;;;17.98;7.50;;;;;;;;;;6116833;23;20101;-82
2022/12/19 12:21:24;;;;;;;18.63;7.93;;;;;;;;;;6090032;23;20018;-84
2022/12/19 12:24:32;;;;;;;18.40;8.50;;;;;;;;;;6067840;23;20014;-83
2022/12/19 12:27:13;;;;;;;19.25;7.85;;;;;;;;;;6114672;23;20018;-84
2022/12/19 12:29:46;;;;;;;18.55;7.90;;;;;;;;;;6117376;23;20471;-84
2022/12/19 12:32:38;;;;;;;20.63;9.23;;;;;;;;;;6090484;23;20017;-84
2022/12/19 12:35:27;;;;;;;18.73;8.30;;;;;;;;;;6066418;23;20025;-84
2022/12/19 12:38:18;;;;;;;20.90;9.27;;;;;;;;;;6115388;23;20455;-84
2022/12/19 12:40:49;;;;;;;18.90;8.27;;;;;;;;;;6113238;23;20926;-83
2022/12/19 12:43:47;;;;;;;21.17;9.40;;;;;;;;;;6090636;23;20434;-83
2022/12/19 12:46:22;;;;;;;20.73;8.43;;;;;;;;;;6082134;23;20062;-83
2022/12/19 12:49:04;;;;;;;19.52;8.98;;;;;;;;;;6091490;23;20292;-83
2022/12/19 12:51:35;;;;;;;18.33;8.00;;;;;;;;;;6066930;23;20018;-83
2022/12/19 12:54:06;;;;;;;18.70;8.48;;;;;;;;;;6091705;23;20454;-83
2022/12/19 12:56:32;;;;;;;23.20;9.68;;;;;;;;;;6066364;23;20018;-82
2022/12/19 12:59:00;;;;;;;23.90;9.02;;;;;;;;;;6067861;23;20054;-82
2022/12/19 13:01:37;;;;;;;23.25;9.75;;;;;;;;;;6115330;23;20037;-82
2022/12/19 13:04:30;;;;;;;21.77;9.02;;;;;;;;;;6090232;23;20026;-82
2022/12/19 13:07:03;;;;;;;20.45;9.07;;;;;;;;;;6080921;23;20022;-83
2022/12/19 13:09:30;;;;;;;25.52;10.30;;;;;;;;;;6054038;23;20017;-82
2022/12/19 13:14:46;;;;;;;22.35;9.65;;;;;;;;;;6116789;23;20518;-82
2022/12/19 13:17:31;;;;;;;23.15;9.05;;;;;;;;;;6065644;23;20030;-82
2022/12/19 13:20:03;;;;;;;23.33;9.88;;;;;;;;;;6091670;23;20018;-83
2022/12/19 13:22:28;;;;;;;20.10;8.52;;;;;;;;;;6090696;23;20026;-83
2022/12/19 13:24:57;;;;;;;23.60;10.15;;;;;;;;;;6092182;23;20073;-82
2022/12/19 13:27:23;;;;;;;21.83;10.50;;;;;;;;;;6091769;23;20018;-83
2022/12/19 13:30:11;;;;;;;21.75;9.63;;;;;;;;;;6092375;23;20025;-83
2022/12/19 13:32:42;;;;;;;21.38;8.18;;;;;;;;;;6092023;23;20355;-83
2022/12/19 13:35:08;;;;;;;24.48;10.30;;;;;;;;;;6118012;23;20077;-83
2022/12/19 13:37:37;;;;;;;23.73;10.27;;;;;;;;;;6118495;23;20013;-83
2022/12/19 13:40:28;;;;;;;23.77;9.93;;;;;;;;;;6092318;23;20908;-83
2022/12/19 13:46:30;;;;;;;21.88;10.45;;;;;;;;;;6096050;23;20028;-83
2022/12/19 13:49:01;;;;;;;22.83;9.73;;;;;;;;;;6092626;23;20120;-82
2022/12/19 13:51:27;;;;;;;23.70;10.20;;;;;;;;;;6068063;23;20033;-84
2022/12/19 13:53:53;;;;;;;25.48;10.57;;;;;;;;;;6092778;23;20750;-83
2022/12/19 13:56:19;;;;;;;26.85;10.35;;;;;;;;;;6068014;23;20025;-83
2022/12/19 13:59:01;;;;;;;28.88;11.65;;;;;;;;;;6067785;23;20022;-83
2022/12/19 14:01:32;;;;;;;24.98;10.68;;;;;;;;;;6091547;23;20018;-83
2022/12/19 14:04:04;;;;;;;20.70;9.73;;;;;;;;;;6066776;23;20009;-82
2022/12/19 14:06:37;;;;;;;24.50;9.85;;;;;;;;;;6115865;23;20061;-82
2022/12/19 14:09:08;;;;;;;22.50;10.40;;;;;;;;;;6092531;23;20018;-84
2022/12/19 14:11:40;;;;;;;23.67;10.73;;;;;;;;;;6090849;23;20025;-83
2022/12/19 14:17:10;;;;;;;24.60;10.18;;;;;;;;;;6095068;23;20053;-83
2022/12/19 14:19:39;;;;;;;27.50;10.48;;;;;;;;;;6068324;23;20109;-84
2022/12/19 14:22:20;;;;;;;27.80;10.70;;;;;;;;;;6068790;23;20104;-83
2022/12/19 14:24:52;;;;;;;25.23;10.23;;;;;;;;;;6068822;23;20025;-83
2022/12/19 14:27:19;;;;;;;25.92;11.70;;;;;;;;;;6093208;23;20358;-83
2022/12/19 14:29:54;;;;;;;24.48;11.25;;;;;;;;;;6068876;23;20093;-83
2022/12/19 14:32:20;;;;;;;26.23;10.95;;;;;;;;;;6068773;23;20022;-84
2022/12/19 14:34:48;;;;;;;27.88;12.07;;;;;;;;;;6068289;23;20114;-84
2022/12/19 14:37:36;;;;;;;27.30;11.45;;;;;;;;;;6091642;23;20014;-83
2022/12/19 14:40:31;;;;;;;26.02;11.00;;;;;;;;;;6067868;23;20021;-85
2022/12/19 14:45:46;;;;;;;24.73;11.82;;;;;;;;;;6057241;23;20423;-84
2022/12/19 14:48:26;;;;;;;27.25;10.93;;;;;;;;;;6091970;23;20013;-84
2022/12/19 14:51:03;;;;;;;26.92;11.43;;;;;;;;;;6092220;23;20089;-83
2022/12/19 14:53:28;;;;;;;26.90;11.38;;;;;;;;;;6072428;23;20513;-84
2022/12/19 14:56:04;;;;;;;28.77;10.77;;;;;;;;;;6092746;23;20025;-83
2022/12/19 14:58:35;;;;;;;30.30;11.38;;;;;;;;;;6093482;23;20356;-83
2022/12/19 15:01:01;;;;;;;30.35;12.45;;;;;;;;;;6085701;23;20450;-84
2022/12/19 15:03:33;;;;;;;25.50;11.85;;;;;;;;;;6093272;23;20017;-83
2022/12/19 15:06:05;;;;;;;27.38;11.77;;;;;;;;;;6067676;23;20021;-82
2022/12/19 15:08:32;;;;;;;30.40;13.15;;;;;;;;;;6092648;23;20014;-83
2022/12/19 15:13:18;;;;;;;;;;;;;;;;;;6068645;23;20020;-82
2022/12/19 15:13:57;;;;;;;22.20;10.80;;;;;;;;;;6096680;23;19913;-83
2022/12/19 15:16:28;;;;;;;28.77;11.85;;;;;;;;;;6068430;23;20792;-84
2022/12/19 15:18:56;;;;;;;30.20;12.15;;;;;;;;;;6068440;23;20017;-83
2022/12/19 15:21:22;;;;;;;24.85;11.60;;;;;;;;;;6067631;23;20469;-83